Middleton, WI

4:22 AM CDT on August 23, 2017 (GMT -0500)
Middleton

Weather History for KC29 - December, 2012

Change the Weather History Date:

Wednesday, December 12, 2012

  Actual Average (KMSN) Record (KMSN)
Temperature  
Mean Temperature 34 °F -  
Max Temperature 42 °F 32 °F 53 °F (1965)
Min Temperature 25 °F 16 °F -10 °F (1962)
Degree Days  
Heating Degree Days 32    
Moisture  
Dew Point 24 °F    
Average Humidity 64    
Maximum Humidity 84    
Minimum Humidity 48    
Precipitation  
Precipitation 0.00 in - - ()
Sea Level Pressure  
Sea Level Pressure 30.12 in    
Wind  
Wind Speed 7 mph (SSW)    
Max Wind Speed 20 mph    
Max Gust Speed 25 mph    
Visibility 10 miles    
Events      
Averages and records for this station are not official NWS values.
T = Trace of Precipitation, MM = Missing Value Source: NWS Daily Summary

Daily Weather History Graph

Daily Weather History Graph

Search for Another Location

Airport or City:

Trip Planner

Search our weather history database for the weather conditions in past years. The results will help you decide how hot, cold, wet, or windy it might be!

Date:

Astronomy

Dec. 12, 2012 Rise Set
Actual Time 7:20 AM CST 4:23 PM CST
Civil Twilight 6:48 AM CST 4:55 PM CST
Nautical Twilight 6:12 AM CST 5:31 PM CST
Astronomical Twilight 5:38 AM CST 6:06 PM CST
Moon 6:24 AM CST (12/12) 4:00 PM CST (12/12)
Length of Visible Light 10h 07m
Length of Day
9h 02m
Waning Crescent, 1% of the Moon is Illuminated
Dec 12
Waning Crescent
Dec 13
New
Dec 19
First Quarter
Dec 28
Full
Jan 4
Last Quarter

Hourly Weather History & Observations

Time (CST) Temp. Windchill Dew Point Humidity Pressure Visibility Wind Dir Wind Speed Gust Speed Precip Events Conditions
12:15 AM 32.0 °F 28.7 °F 24.4 °F 74% 30.07 in 10.0 mi SW 3.5 mph - N/A   Overcast
12:35 AM 32.0 °F 27.5 °F 24.8 °F 75% 30.08 in 10.0 mi WSW 4.6 mph - N/A   Overcast
12:55 AM 32.0 °F 27.5 °F 24.8 °F 75% 30.08 in 10.0 mi SW 4.6 mph - N/A   Overcast
1:15 AM 31.8 °F 28.5 °F 24.8 °F 75% 30.09 in 10.0 mi SW 3.5 mph - N/A   Overcast
1:35 AM 31.8 °F - 25.2 °F 76% 30.10 in 10.0 mi Calm Calm - N/A   Overcast
1:55 AM 31.5 °F - 25.2 °F 78% 30.10 in 10.0 mi Calm Calm - N/A   Overcast
2:15 AM 31.6 °F - 25.2 °F 77% 30.10 in 10.0 mi Calm Calm - N/A   Overcast
2:55 AM 30.4 °F 26.9 °F 25.7 °F 83% 30.09 in 10.0 mi ESE 3.5 mph - N/A   Overcast
3:15 AM 31.1 °F - 25.5 °F 80% 30.09 in 10.0 mi Calm Calm - N/A   Overcast
3:35 AM 30.9 °F 26.2 °F 24.8 °F 78% 30.09 in 10.0 mi South 4.6 mph - N/A   Overcast
3:55 AM 29.8 °F - 24.3 °F 80% 30.10 in 10.0 mi Calm Calm - N/A   Scattered Clouds
4:15 AM 28.4 °F 23.3 °F 24.1 °F 84% 30.09 in 10.0 mi South 4.6 mph - N/A   Clear
4:35 AM 25.9 °F - 21.7 °F 84% 30.09 in 10.0 mi Calm Calm - N/A   Clear
4:55 AM 27.3 °F - 22.6 °F 83% 30.10 in 10.0 mi Calm Calm - N/A   Clear
5:15 AM 26.4 °F 22.4 °F 21.9 °F 83% 30.10 in 10.0 mi SW 3.5 mph - N/A   Clear
5:35 AM 25.5 °F - 20.8 °F 82% 30.11 in 10.0 mi Calm Calm - N/A   Clear
5:55 AM 27.5 °F - 21.7 °F 79% 30.12 in 10.0 mi Calm Calm - N/A   Clear
6:15 AM 28.0 °F - 21.4 °F 76% 30.12 in 10.0 mi Calm Calm - N/A   Clear
6:35 AM 26.4 °F 19.8 °F 20.3 °F 78% 30.13 in 10.0 mi SSW 5.8 mph - N/A   Clear
6:55 AM 28.8 °F 20.9 °F 20.7 °F 72% 30.13 in 10.0 mi SSW 8.1 mph - N/A   Clear
7:35 AM 29.1 °F 22.1 °F 20.3 °F 70% 30.13 in 10.0 mi SSW 6.9 mph - N/A   Clear
7:55 AM 28.9 °F 23.9 °F 20.3 °F 70% 30.14 in 10.0 mi SSW 4.6 mph - N/A   Clear
8:15 AM 30.0 °F 21.7 °F 20.3 °F 67% 30.15 in 10.0 mi SSW 9.2 mph - N/A   Clear
8:35 AM 31.3 °F 22.7 °F 21.0 °F 66% 30.15 in 10.0 mi SSW 10.4 mph - N/A   Clear
8:55 AM 32.0 °F 23.0 °F 21.2 °F 64% 30.16 in 10.0 mi SSW 11.5 mph - N/A   Clear
9:15 AM 32.9 °F 24.1 °F 21.7 °F 64% 30.17 in 10.0 mi SSW 11.5 mph - N/A   Clear
9:35 AM 32.9 °F 24.1 °F 21.7 °F 64% 30.17 in 10.0 mi SSW 11.5 mph - N/A   Clear
9:55 AM 33.1 °F 25.5 °F 22.3 °F 65% 30.17 in 10.0 mi SSW 9.2 mph - N/A   Clear
10:15 AM 33.4 °F 26.6 °F 22.8 °F 65% 30.18 in 10.0 mi SW 8.1 mph - N/A   Clear
10:55 AM 35.2 °F 30.3 °F 23.0 °F 61% 30.18 in 10.0 mi SSW 5.8 mph - N/A   Clear
11:15 AM 36.1 °F 29.9 °F 22.8 °F 58% 30.17 in 10.0 mi SSW 8.1 mph - N/A   Clear
11:35 AM 37.9 °F 30.9 °F 22.6 °F 54% 30.16 in 10.0 mi SSW 10.4 mph - N/A   Clear
11:55 AM 38.8 °F 32.1 °F 23.0 °F 53% 30.16 in 10.0 mi SSW 10.4 mph - N/A   Clear
12:15 PM 40.1 °F 32.7 °F 23.2 °F 51% 30.14 in 10.0 mi SSW 12.7 mph - N/A   Clear
12:35 PM 41.4 °F 34.0 °F 23.0 °F 48% 30.14 in 10.0 mi SSW 13.8 mph 20.7 mph N/A   Clear
12:55 PM 41.9 °F 35.0 °F 23.7 °F 49% 30.13 in 10.0 mi South 12.7 mph - N/A   Clear
1:15 PM 41.5 °F 35.0 °F 24.8 °F 51% 30.13 in 10.0 mi SSW 11.5 mph 18.4 mph N/A   Clear
1:35 PM 41.9 °F 35.4 °F 24.8 °F 51% 30.12 in 10.0 mi South 11.5 mph 17.3 mph N/A   Clear
1:55 PM 41.9 °F 35.9 °F 25.3 °F 52% 30.12 in 10.0 mi South 10.4 mph 19.6 mph N/A   Clear
2:15 PM 41.7 °F 34.1 °F 25.5 °F 53% 30.11 in 10.0 mi South 15.0 mph - N/A   Clear
2:35 PM 41.7 °F 34.8 °F 25.5 °F 53% 30.12 in 10.0 mi SSW 12.7 mph - N/A   Clear
2:55 PM 41.9 °F 34.6 °F 25.7 °F 53% 30.12 in 10.0 mi South 13.8 mph - N/A   Clear
3:15 PM 42.4 °F 36.1 °F 25.5 °F 51% 30.12 in 10.0 mi South 11.5 mph 18.4 mph N/A   Clear
3:35 PM 42.3 °F 35.5 °F 25.5 °F 52% 30.11 in 10.0 mi South 12.7 mph 18.4 mph N/A   Clear
3:55 PM 41.9 °F 35.4 °F 25.2 °F 52% 30.12 in 10.0 mi South 11.5 mph 20.7 mph N/A   Clear
4:15 PM 41.2 °F 34.1 °F 25.7 °F 54% 30.11 in 10.0 mi South 12.7 mph - N/A   Clear
4:35 PM 40.6 °F 32.7 °F 25.7 °F 55% 30.11 in 10.0 mi South 15.0 mph 18.4 mph N/A   Clear
4:55 PM 40.3 °F 31.9 °F 25.7 °F 56% 30.10 in 10.0 mi South 16.1 mph 20.7 mph N/A   Clear
5:15 PM 40.1 °F 32.7 °F 25.5 °F 56% 30.11 in 10.0 mi South 12.7 mph - N/A   Clear
5:55 PM 39.2 °F 30.8 °F 25.3 °F 58% 30.11 in 10.0 mi South 15.0 mph - N/A   Clear
6:15 PM 38.5 °F 29.9 °F 25.5 °F 60% 30.10 in 10.0 mi South 15.0 mph 21.9 mph N/A   Clear
6:35 PM 38.5 °F 29.6 °F 25.2 °F 59% 30.10 in 10.0 mi South 16.1 mph 23.0 mph N/A   Clear
6:55 PM 38.3 °F 29.0 °F 25.2 °F 59% 30.10 in 10.0 mi South 17.3 mph 23.0 mph N/A   Clear
7:15 PM 37.9 °F 27.9 °F 25.0 °F 60% 30.10 in 10.0 mi South 19.6 mph 24.2 mph N/A   Clear
7:35 PM 38.1 °F 28.4 °F 25.2 °F 60% 30.11 in 10.0 mi South 18.4 mph 25.3 mph N/A   Clear
7:55 PM 38.1 °F 29.1 °F 25.0 °F 59% 30.12 in 10.0 mi South 16.1 mph 24.2 mph N/A   Clear
8:15 PM 37.8 °F 28.6 °F 25.2 °F 60% 30.12 in 10.0 mi South 16.1 mph 23.0 mph N/A   Clear
8:35 PM 37.4 °F 27.5 °F 25.2 °F 61% 30.12 in 10.0 mi SSW 18.4 mph 23.0 mph N/A   Clear
8:55 PM 37.6 °F 27.7 °F 25.2 °F 61% 30.12 in 10.0 mi SSW 18.4 mph 25.3 mph N/A   Clear
9:15 PM 37.8 °F 28.0 °F 25.3 °F 61% 30.12 in 10.0 mi SSW 18.4 mph 25.3 mph N/A   Clear
9:35 PM 37.8 °F 28.6 °F 25.3 °F 61% 30.12 in 10.0 mi SSW 16.1 mph 24.2 mph N/A   Clear
9:55 PM 37.9 °F 29.2 °F 25.7 °F 61% 30.13 in 10.0 mi SSW 15.0 mph 23.0 mph N/A   Clear
10:15 PM 37.6 °F 28.8 °F 25.5 °F 62% 30.13 in 10.0 mi SSW 15.0 mph 19.6 mph N/A   Clear
10:35 PM 37.6 °F 28.8 °F 25.2 °F 61% 30.13 in 10.0 mi SSW 15.0 mph 23.0 mph N/A   Clear
10:55 PM 37.4 °F 28.9 °F 25.3 °F 62% 30.14 in 10.0 mi SSW 13.8 mph - N/A   Clear
11:15 PM 37.0 °F 28.5 °F 25.2 °F 62% 30.14 in 10.0 mi SSW 13.8 mph 19.6 mph N/A   Clear
11:35 PM 36.5 °F 27.4 °F 25.3 °F 64% 30.14 in 10.0 mi SSW 15.0 mph 18.4 mph N/A   Clear
11:55 PM 36.1 °F 29.3 °F 25.3 °F 65% 30.14 in 10.0 mi SSW 9.2 mph - N/A   Clear